createdAt,value
2023-02-02T00:01:02.769Z,12.38
2023-02-02T00:03:32.839Z,12.65
2023-02-02T00:06:01.255Z,12.02
2023-02-02T00:08:31.139Z,12.10
2023-02-02T00:10:59.742Z,13.63
2023-02-02T00:13:28.239Z,13.48
2023-02-02T00:16:01.936Z,12.05
2023-02-02T00:18:30.510Z,12.70
2023-02-02T00:21:06.629Z,12.63
2023-02-02T00:23:35.083Z,12.57
2023-02-02T00:26:03.653Z,12.70
2023-02-02T00:28:33.406Z,12.40
2023-02-02T00:31:03.398Z,12.57
2023-02-02T00:33:32.367Z,12.35
2023-02-02T00:36:01.161Z,13.15
2023-02-02T00:38:30.222Z,13.50
2023-02-02T00:40:58.780Z,12.15
2023-02-02T00:43:29.142Z,12.90
2023-02-02T00:45:56.698Z,12.68
2023-02-02T00:50:59.428Z,12.90
2023-02-02T00:53:29.329Z,13.13
2023-02-02T00:55:57.808Z,12.15
2023-02-02T00:58:26.609Z,12.93
2023-02-02T01:00:55.386Z,10.95
2023-02-02T01:03:23.837Z,10.98
2023-02-02T01:05:53.709Z,11.77
2023-02-02T01:08:22.310Z,11.05
2023-02-02T01:10:50.820Z,11.35
2023-02-02T01:13:19.273Z,10.40
2023-02-02T01:15:48.001Z,11.55
2023-02-02T01:18:16.550Z,11.23
2023-02-02T01:20:45.027Z,10.57
2023-02-02T01:23:14.974Z,10.60
2023-02-02T01:25:44.608Z,8.57
2023-02-02T01:28:14.826Z,9.05
2023-02-02T01:30:45.102Z,10.13
2023-02-02T01:33:14.115Z,9.00
2023-02-02T01:35:47.158Z,9.40
2023-02-02T01:38:17.558Z,8.25
2023-02-02T01:40:47.572Z,9.20
2023-02-02T01:43:25.804Z,9.07
2023-02-02T01:45:56.854Z,8.70
2023-02-02T01:48:29.963Z,10.05
2023-02-02T01:51:04.991Z,9.80
2023-02-02T01:53:36.611Z,9.68
2023-02-02T01:56:09.418Z,10.07
2023-02-02T01:58:42.369Z,11.65
2023-02-02T02:01:12.263Z,11.80
2023-02-02T02:03:40.994Z,12.30
2023-02-02T02:06:14.542Z,12.32
2023-02-02T02:08:52.321Z,12.27
2023-02-02T02:11:21.776Z,12.48
2023-02-02T02:14:10.558Z,12.57
2023-02-02T02:17:11.903Z,11.82
2023-02-02T02:20:27.732Z,12.27
2023-02-02T02:23:59.352Z,12.60
2023-02-02T02:26:48.181Z,12.68
2023-02-02T02:29:50.131Z,12.60
2023-02-02T02:32:38.568Z,15.13
2023-02-02T02:35:13.943Z,12.40
2023-02-02T02:37:50.694Z,11.23
2023-02-02T02:40:27.215Z,12.70
2023-02-02T02:43:02.452Z,12.13
2023-02-02T02:45:32.877Z,11.73
2023-02-02T02:48:04.732Z,12.23
2023-02-02T02:50:33.332Z,11.57
2023-02-02T02:53:07.637Z,11.52
2023-02-02T02:55:48.095Z,11.23
2023-02-02T02:58:23.293Z,11.45
2023-02-02T03:01:04.383Z,12.02
2023-02-02T03:03:51.460Z,10.65
2023-02-02T03:06:27.651Z,10.82
2023-02-02T03:09:02.108Z,10.13
2023-02-02T03:11:32.280Z,9.50
2023-02-02T03:14:03.773Z,11.68
2023-02-02T03:16:32.537Z,10.43
2023-02-02T03:19:02.679Z,11.05
2023-02-02T03:21:31.139Z,10.38
2023-02-02T03:24:00.039Z,9.82
2023-02-02T03:26:31.575Z,10.30
2023-02-02T03:29:00.121Z,9.77
2023-02-02T03:31:29.669Z,10.48
2023-02-02T03:33:58.338Z,11.25
2023-02-02T03:36:29.444Z,12.00
2023-02-02T03:38:58.268Z,10.18
2023-02-02T03:41:26.977Z,11.77
2023-02-02T03:43:58.857Z,11.02
2023-02-02T03:46:28.934Z,13.02
2023-02-02T03:48:58.994Z,21.48
2023-02-02T03:51:29.216Z,17.02
2023-02-02T03:53:57.668Z,15.30
2023-02-02T03:56:28.425Z,15.77
2023-02-02T03:58:56.881Z,12.43
2023-02-02T04:01:30.430Z,13.50
2023-02-02T04:03:59.904Z,13.32
2023-02-02T04:06:29.953Z,12.93
2023-02-02T04:08:58.418Z,14.55
2023-02-02T04:11:27.110Z,13.27
2023-02-02T04:13:55.790Z,13.23
2023-02-02T04:16:24.349Z,12.32
2023-02-02T04:18:56.917Z,14.70
2023-02-02T04:21:25.396Z,13.73
2023-02-02T04:23:57.135Z,12.88
2023-02-02T04:26:26.436Z,12.48
2023-02-02T04:28:56.435Z,13.85
2023-02-02T04:31:25.306Z,13.25
2023-02-02T04:33:53.764Z,12.85
2023-02-02T04:36:22.208Z,12.32
2023-02-02T04:38:51.705Z,12.52
2023-02-02T04:41:22.944Z,13.60
2023-02-02T04:43:51.386Z,13.50
2023-02-02T04:46:29.314Z,14.23
2023-02-02T04:48:59.003Z,19.98
2023-02-02T04:51:27.587Z,14.85
2023-02-02T04:53:56.091Z,14.60
2023-02-02T04:56:26.837Z,15.52
2023-02-02T04:58:56.679Z,13.70
2023-02-02T05:01:25.376Z,15.15
2023-02-02T05:03:54.141Z,14.45
2023-02-02T05:06:22.683Z,13.57
2023-02-02T05:08:51.767Z,14.20
2023-02-02T05:11:22.602Z,14.52
2023-02-02T05:13:58.858Z,15.13
2023-02-02T05:16:29.045Z,14.52
2023-02-02T05:18:59.673Z,14.18
2023-02-02T05:21:28.751Z,18.23
2023-02-02T05:23:57.310Z,16.27
2023-02-02T05:26:28.202Z,15.50
2023-02-02T05:29:01.225Z,14.05
2023-02-02T05:31:30.944Z,14.13
2023-02-02T05:33:59.562Z,14.65
2023-02-02T05:36:31.233Z,15.10
2023-02-02T05:39:00.569Z,15.13
2023-02-02T05:41:30.234Z,13.82
2023-02-02T05:44:02.050Z,13.38
2023-02-02T05:46:30.754Z,14.60
2023-02-02T05:49:00.793Z,12.88
2023-02-02T05:51:33.443Z,13.73
2023-02-02T05:54:06.703Z,13.15
2023-02-02T05:56:47.368Z,13.05
2023-02-02T05:59:17.643Z,12.73
2023-02-02T06:01:46.507Z,12.68
2023-02-02T06:04:15.471Z,12.10
2023-02-02T06:06:44.258Z,13.07
2023-02-02T06:09:13.229Z,12.90
2023-02-02T06:11:41.811Z,12.93
2023-02-02T06:14:10.271Z,12.93
2023-02-02T06:16:40.370Z,13.15
2023-02-02T06:19:11.226Z,13.27
2023-02-02T06:21:40.133Z,13.95
2023-02-02T06:24:09.094Z,12.35
2023-02-02T06:26:40.300Z,13.43
2023-02-02T06:29:13.025Z,13.38
2023-02-02T06:31:43.117Z,13.73
2023-02-02T06:34:14.735Z,14.15
2023-02-02T06:36:45.013Z,13.77
2023-02-02T06:39:29.824Z,13.38
2023-02-02T06:42:02.044Z,13.65
2023-02-02T06:44:37.398Z,12.65
2023-02-02T06:47:08.004Z,12.98
2023-02-02T06:49:36.664Z,12.07
2023-02-02T06:52:05.228Z,13.15
2023-02-02T06:54:33.725Z,14.02
2023-02-02T06:57:02.162Z,13.13
2023-02-02T06:59:30.654Z,12.95
2023-02-02T07:01:59.810Z,13.15
2023-02-02T07:04:29.953Z,13.18
2023-02-02T07:06:58.720Z,13.35
2023-02-02T07:09:27.340Z,12.50
2023-02-02T07:11:55.752Z,13.07
2023-02-02T07:14:26.673Z,13.07
2023-02-02T07:16:55.321Z,12.82
2023-02-02T07:19:26.510Z,12.52
2023-02-02T07:21:57.361Z,12.27
2023-02-02T07:24:25.964Z,13.50
2023-02-02T07:26:54.421Z,12.57
2023-02-02T07:29:25.291Z,12.80
2023-02-02T07:31:53.774Z,12.75
2023-02-02T07:34:22.545Z,13.05
2023-02-02T07:36:57.471Z,12.65
2023-02-02T07:39:28.873Z,12.68
2023-02-02T07:41:57.376Z,12.40
2023-02-02T07:44:33.663Z,12.55
2023-02-02T07:47:03.750Z,12.18
2023-02-02T07:49:34.100Z,13.90
2023-02-02T07:52:08.794Z,12.40
2023-02-02T07:54:37.223Z,12.57
2023-02-02T07:57:10.051Z,12.63
2023-02-02T07:59:38.784Z,12.20
2023-02-02T08:02:07.894Z,12.77
2023-02-02T08:04:36.552Z,12.55
2023-02-02T08:07:08.274Z,18.05
2023-02-02T08:09:36.804Z,12.55
2023-02-02T08:12:05.409Z,12.75
2023-02-02T08:14:34.344Z,13.25
2023-02-02T08:17:05.560Z,13.40
2023-02-02T08:19:36.693Z,13.40
2023-02-02T08:22:06.736Z,13.73
2023-02-02T08:24:40.592Z,15.77
2023-02-02T08:29:40.787Z,14.27
2023-02-02T08:32:09.978Z,13.98
2023-02-02T08:34:41.015Z,15.05
2023-02-02T08:37:10.986Z,12.95
2023-02-02T08:39:39.476Z,12.18
2023-02-02T08:42:08.965Z,12.82
2023-02-02T08:45:01.513Z,13.40
2023-02-02T08:47:30.333Z,11.35
2023-02-02T08:49:59.190Z,13.15
2023-02-02T08:52:29.095Z,11.80
2023-02-02T08:54:57.834Z,13.02
2023-02-02T08:57:26.285Z,15.90
2023-02-02T08:59:54.718Z,16.90
2023-02-02T09:02:23.449Z,17.30
2023-02-02T09:04:51.967Z,18.40
2023-02-02T09:07:21.274Z,15.73
2023-02-02T09:09:52.785Z,13.43
2023-02-02T09:12:21.315Z,13.82
2023-02-02T09:14:55.066Z,13.00
2023-02-02T09:17:24.302Z,12.98
2023-02-02T09:19:52.789Z,12.18
2023-02-02T09:22:22.248Z,12.85
2023-02-02T09:24:52.989Z,12.77
2023-02-02T09:27:22.600Z,13.00
2023-02-02T09:29:52.454Z,13.18
2023-02-02T09:32:21.518Z,13.82
2023-02-02T09:34:50.000Z,13.10
2023-02-02T09:37:18.983Z,13.15
2023-02-02T09:39:51.342Z,18.60
2023-02-02T09:42:32.430Z,13.27
2023-02-02T09:45:07.248Z,14.30
2023-02-02T09:47:55.567Z,12.82
2023-02-02T09:50:44.647Z,13.10
2023-02-02T09:53:21.543Z,11.80
2023-02-02T09:55:54.646Z,12.55
2023-02-02T09:58:36.916Z,13.13
2023-02-02T10:01:12.061Z,12.52
2023-02-02T10:03:46.627Z,11.32
2023-02-02T10:06:30.264Z,11.52
2023-02-02T10:09:08.710Z,12.15
2023-02-02T10:11:42.823Z,12.00
2023-02-02T10:14:21.385Z,12.13
2023-02-02T10:16:55.519Z,12.38
2023-02-02T10:19:29.405Z,12.30
2023-02-02T10:22:06.646Z,12.30
2023-02-02T10:24:36.451Z,13.02
2023-02-02T10:27:08.134Z,13.35
2023-02-02T10:29:50.598Z,14.23
2023-02-02T10:32:26.784Z,13.85
2023-02-02T10:35:34.292Z,14.48
2023-02-02T10:38:13.805Z,12.50
2023-02-02T10:40:53.402Z,11.52
2023-02-02T10:43:51.474Z,12.68
2023-02-02T10:46:29.132Z,13.00
2023-02-02T10:49:13.073Z,15.38
2023-02-02T10:51:42.285Z,13.07
2023-02-02T10:54:31.349Z,12.98
2023-02-02T10:57:02.250Z,12.23
2023-02-02T10:59:40.073Z,13.77
2023-02-02T11:02:20.749Z,12.38
2023-02-02T11:05:08.950Z,12.52
2023-02-02T11:07:38.313Z,11.88
2023-02-02T11:10:25.970Z,13.10
2023-02-02T11:13:01.867Z,12.82
2023-02-02T11:15:33.124Z,11.73
2023-02-02T11:18:16.646Z,11.70
2023-02-02T11:20:54.428Z,12.57
2023-02-02T11:23:25.518Z,13.05
2023-02-02T11:26:06.518Z,13.00
2023-02-02T11:28:42.771Z,12.15
2023-02-02T11:31:13.223Z,12.45
2023-02-02T11:33:45.688Z,12.80
2023-02-02T11:36:23.237Z,12.55
2023-02-02T11:39:17.725Z,12.90
2023-02-02T11:41:46.576Z,12.93
2023-02-02T11:44:25.799Z,12.38
2023-02-02T11:46:56.942Z,11.52
2023-02-02T11:49:27.734Z,12.70
2023-02-02T11:52:07.523Z,12.75
2023-02-02T11:54:38.444Z,12.73
2023-02-02T11:57:11.711Z,13.82
2023-02-02T11:59:44.741Z,12.75
2023-02-02T12:02:34.713Z,13.52
2023-02-02T12:05:35.071Z,14.10
2023-02-02T12:08:09.288Z,12.38
2023-02-02T12:10:52.316Z,12.38
2023-02-02T12:13:35.488Z,12.85
2023-02-02T12:16:28.166Z,12.73
2023-02-02T12:19:30.055Z,13.63
2023-02-02T12:22:11.493Z,12.65
2023-02-02T12:24:51.085Z,13.68
2023-02-02T12:27:34.163Z,12.50
2023-02-02T12:30:19.810Z,13.40
2023-02-02T12:33:27.049Z,12.80
2023-02-02T12:36:13.714Z,12.43
2023-02-02T12:39:14.866Z,14.38
2023-02-02T12:42:05.228Z,13.45
2023-02-02T12:44:44.747Z,13.52
2023-02-02T12:47:23.656Z,13.23
2023-02-02T12:50:05.496Z,12.55
2023-02-02T12:52:56.340Z,13.52
2023-02-02T12:55:39.429Z,13.32
2023-02-02T12:58:15.828Z,12.07
2023-02-02T13:01:06.366Z,13.88
2023-02-02T13:03:46.921Z,12.70
2023-02-02T13:06:45.018Z,13.38
2023-02-02T13:09:19.929Z,13.80
2023-02-02T13:11:57.497Z,13.63
2023-02-02T13:14:34.024Z,14.13
2023-02-02T13:17:07.199Z,13.43
2023-02-02T13:19:41.682Z,13.75
2023-02-02T13:22:16.846Z,13.10
2023-02-02T13:24:52.268Z,13.18
2023-02-02T13:27:23.987Z,13.85
2023-02-02T13:29:57.033Z,13.88
2023-02-02T13:32:30.274Z,14.73
2023-02-02T13:35:03.909Z,14.05
2023-02-02T13:37:38.073Z,14.05
2023-02-02T13:40:18.569Z,13.80
2023-02-02T13:42:57.605Z,14.93
2023-02-02T13:45:43.766Z,14.25
2023-02-02T13:48:24.266Z,15.45
2023-02-02T13:51:18.481Z,15.70
2023-02-02T13:54:06.337Z,17.13
2023-02-02T13:56:49.195Z,15.38
2023-02-02T13:59:53.966Z,15.82
2023-02-02T14:02:31.233Z,16.02
2023-02-02T14:05:02.448Z,15.05
2023-02-02T14:07:41.920Z,14.95
2023-02-02T14:10:25.988Z,15.77
2023-02-02T14:12:56.559Z,17.80
2023-02-02T14:15:40.539Z,15.32
2023-02-02T14:18:11.538Z,15.80
2023-02-02T14:20:49.960Z,16.77
2023-02-02T14:23:52.935Z,14.82
2023-02-02T14:26:42.007Z,13.52
2023-02-02T14:29:53.610Z,13.43
2023-02-02T14:32:34.830Z,14.20
2023-02-02T14:35:50.419Z,13.75
2023-02-02T14:38:35.760Z,14.32
2023-02-02T14:41:15.284Z,14.38
2023-02-02T14:43:50.433Z,15.48
2023-02-02T14:46:41.064Z,14.45
2023-02-02T14:49:27.718Z,13.93
2023-02-02T14:54:50.745Z,15.20
2023-02-02T14:57:26.031Z,14.13
2023-02-02T14:59:56.708Z,16.10
2023-02-02T15:02:34.227Z,14.07
2023-02-02T15:05:42.047Z,14.18
2023-02-02T15:08:27.703Z,16.52
2023-02-02T15:11:28.738Z,14.85
2023-02-02T15:14:22.943Z,14.82
2023-02-02T15:16:55.359Z,15.00
2023-02-02T15:19:35.388Z,14.10
2023-02-02T15:22:22.881Z,13.55
2023-02-02T15:24:54.200Z,18.58
2023-02-02T15:27:27.755Z,16.88
2023-02-02T15:30:03.389Z,16.45
2023-02-02T15:32:34.180Z,14.30
2023-02-02T15:35:07.257Z,14.32
2023-02-02T15:37:41.885Z,14.75
2023-02-02T15:40:16.205Z,15.20
2023-02-02T15:42:54.447Z,15.00
2023-02-02T15:45:38.084Z,13.30
2023-02-02T15:48:19.850Z,14.32
2023-02-02T15:50:51.321Z,15.60
2023-02-02T15:53:23.378Z,15.20
2023-02-02T15:55:54.332Z,13.77
2023-02-02T15:58:34.242Z,14.57
2023-02-02T16:01:20.260Z,14.85
2023-02-02T16:04:17.084Z,15.23
2023-02-02T16:06:47.141Z,14.50
2023-02-02T16:09:29.794Z,14.90
2023-02-02T16:12:01.636Z,16.20
2023-02-02T16:14:34.359Z,15.73
2023-02-02T16:17:20.204Z,16.42
2023-02-02T16:19:57.995Z,14.13
2023-02-02T16:22:28.295Z,15.02
2023-02-02T16:24:59.691Z,15.95
2023-02-02T16:27:31.292Z,16.15
2023-02-02T16:30:09.243Z,16.13
2023-02-02T16:32:40.335Z,13.98
2023-02-02T16:35:33.408Z,16.35
2023-02-02T16:38:17.063Z,26.02
2023-02-02T16:40:45.694Z,15.90
2023-02-02T16:43:19.805Z,16.70
2023-02-02T16:45:52.933Z,14.90
2023-02-02T16:48:30.151Z,15.25
2023-02-02T16:51:27.573Z,14.25
2023-02-02T16:54:13.747Z,16.30
2023-02-02T16:56:45.248Z,16.00
2023-02-02T16:59:22.116Z,15.32
2023-02-02T17:02:00.122Z,16.15
2023-02-02T17:04:32.395Z,15.68
2023-02-02T17:07:08.611Z,16.67
2023-02-02T17:09:42.355Z,14.80
2023-02-02T17:12:37.394Z,15.02
2023-02-02T17:15:34.813Z,15.52
2023-02-02T17:18:08.584Z,15.73
2023-02-02T17:20:46.722Z,15.18
2023-02-02T17:23:23.200Z,16.08
2023-02-02T17:25:54.146Z,17.10
2023-02-02T17:28:30.929Z,20.98
2023-02-02T17:31:11.148Z,14.90
2023-02-02T17:33:55.734Z,15.40
2023-02-02T17:36:25.351Z,15.85
2023-02-02T17:38:55.122Z,15.90
2023-02-02T17:41:30.225Z,15.23
2023-02-02T17:43:58.976Z,15.20
2023-02-02T17:46:31.266Z,16.08
2023-02-02T17:49:04.883Z,14.90
2023-02-02T17:51:34.432Z,15.75
2023-02-02T17:54:02.914Z,15.50
2023-02-02T17:56:31.488Z,14.88
2023-02-02T17:59:01.697Z,14.98
2023-02-02T18:01:32.449Z,16.38
2023-02-02T18:04:04.615Z,15.43
2023-02-02T18:06:33.471Z,17.52
2023-02-02T18:09:02.300Z,16.52
2023-02-02T18:11:31.236Z,15.82
2023-02-02T18:13:59.918Z,15.88
2023-02-02T18:16:30.880Z,15.15
2023-02-02T18:18:59.700Z,14.98
2023-02-02T18:21:32.514Z,16.02
2023-02-02T18:24:01.347Z,20.77
2023-02-02T18:26:31.489Z,17.08
2023-02-02T18:29:02.175Z,15.60
2023-02-02T18:31:31.540Z,14.82
2023-02-02T18:34:00.217Z,15.52
2023-02-02T18:36:30.250Z,14.77
2023-02-02T18:38:58.855Z,15.45
2023-02-02T18:41:27.310Z,15.45
2023-02-02T18:43:58.605Z,14.50
2023-02-02T18:46:27.829Z,15.85
2023-02-02T18:48:57.526Z,14.70
2023-02-02T18:51:35.195Z,14.90
2023-02-02T18:54:05.140Z,15.90
2023-02-02T18:56:35.447Z,15.75
2023-02-02T18:59:07.099Z,15.52
2023-02-02T19:01:36.933Z,15.93
2023-02-02T19:04:06.167Z,16.52
2023-02-02T19:06:53.912Z,16.77
2023-02-02T19:09:24.946Z,16.42
2023-02-02T19:11:55.819Z,15.70
2023-02-02T19:14:26.784Z,15.65
2023-02-02T19:17:02.714Z,16.25
2023-02-02T19:19:34.742Z,16.17
2023-02-02T19:22:13.924Z,16.40
2023-02-02T19:24:42.514Z,17.20
2023-02-02T19:27:18.358Z,16.73
2023-02-02T19:29:50.901Z,16.70
2023-02-02T19:32:22.284Z,16.92
2023-02-02T19:34:53.189Z,15.68
2023-02-02T19:37:27.434Z,16.92
2023-02-02T19:40:26.534Z,15.98
2023-02-02T19:42:59.913Z,15.45
2023-02-02T19:45:33.853Z,14.80
2023-02-02T19:48:14.644Z,15.77
2023-02-02T19:50:43.100Z,16.17
2023-02-02T19:53:20.418Z,15.95
2023-02-02T19:55:51.361Z,16.25
2023-02-02T19:58:22.290Z,16.70
2023-02-02T20:00:53.147Z,15.95
2023-02-02T20:03:24.663Z,19.65
2023-02-02T20:05:54.839Z,20.33
2023-02-02T20:08:27.907Z,16.13
2023-02-02T20:11:00.765Z,17.15
2023-02-02T20:13:40.056Z,15.85
2023-02-02T20:16:13.004Z,16.05
2023-02-02T20:18:44.204Z,16.30
2023-02-02T20:21:23.952Z,15.93
2023-02-02T20:23:54.027Z,15.85
2023-02-02T20:26:26.105Z,16.40
2023-02-02T20:28:56.529Z,15.98
2023-02-02T20:31:27.361Z,20.85
2023-02-02T20:33:57.748Z,16.83
2023-02-02T20:36:38.108Z,16.88
2023-02-02T20:39:28.699Z,16.50
2023-02-02T20:41:58.990Z,15.30
2023-02-02T20:44:28.708Z,15.45
2023-02-02T20:46:58.900Z,16.25
2023-02-02T20:49:29.785Z,15.77
2023-02-02T20:52:00.051Z,16.42
2023-02-02T20:54:30.799Z,15.48
2023-02-02T20:56:59.370Z,16.17
2023-02-02T20:59:27.845Z,15.65
2023-02-02T21:01:56.453Z,17.35
2023-02-02T21:04:24.972Z,15.32
2023-02-02T21:06:55.419Z,15.55
2023-02-02T21:09:23.880Z,15.63
2023-02-02T21:11:53.939Z,14.68
2023-02-02T21:14:22.992Z,15.85
2023-02-02T21:16:55.418Z,16.63
2023-02-02T21:19:31.210Z,15.45
2023-02-02T21:21:59.817Z,15.90
2023-02-02T21:24:28.355Z,14.75
2023-02-02T21:26:59.591Z,14.43
2023-02-02T21:29:31.368Z,15.60
2023-02-02T21:32:02.804Z,14.90
2023-02-02T21:34:33.854Z,14.88
2023-02-02T21:37:02.404Z,15.05
2023-02-02T21:39:33.690Z,15.20
2023-02-02T21:42:14.364Z,14.95
2023-02-02T21:44:45.938Z,15.35
2023-02-02T21:47:27.712Z,15.57
2023-02-02T21:49:59.386Z,14.27
2023-02-02T21:52:34.303Z,15.02
2023-02-02T21:55:28.653Z,14.52
2023-02-02T21:58:01.107Z,15.32
2023-02-02T22:00:34.601Z,15.77
2023-02-02T22:03:03.837Z,15.05
2023-02-02T22:05:36.652Z,15.52
2023-02-02T22:08:22.146Z,14.93
2023-02-02T22:10:50.894Z,15.93
2023-02-02T22:13:26.714Z,16.48
2023-02-02T22:15:55.512Z,16.30
2023-02-02T22:18:25.989Z,15.00
2023-02-02T22:20:56.677Z,15.27
2023-02-02T22:23:28.745Z,15.68
2023-02-02T22:25:59.211Z,16.10
2023-02-02T22:28:34.090Z,16.50
2023-02-02T22:31:02.659Z,16.00
2023-02-02T22:33:31.274Z,15.65
2023-02-02T22:35:59.650Z,15.45
2023-02-02T22:38:28.208Z,16.15
2023-02-02T22:40:56.999Z,16.02
2023-02-02T22:43:25.964Z,16.42
2023-02-02T22:45:56.115Z,15.02
2023-02-02T22:48:24.830Z,15.63
2023-02-02T22:50:53.598Z,15.35
2023-02-02T22:53:22.125Z,16.00
2023-02-02T22:55:56.449Z,16.02
2023-02-02T22:58:26.150Z,15.68
2023-02-02T23:00:56.080Z,15.88
2023-02-02T23:03:24.596Z,15.65
2023-02-02T23:05:53.109Z,16.20
2023-02-02T23:08:21.487Z,15.73
2023-02-02T23:10:49.947Z,17.10
2023-02-02T23:13:18.389Z,15.43
2023-02-02T23:15:46.853Z,16.25
2023-02-02T23:18:19.254Z,15.40
2023-02-02T23:20:48.920Z,16.23
2023-02-02T23:23:17.534Z,16.77
2023-02-02T23:25:45.972Z,16.25
2023-02-02T23:28:15.694Z,15.60
2023-02-02T23:30:44.223Z,15.00
2023-02-02T23:33:12.749Z,15.88
2023-02-02T23:35:43.739Z,16.45
2023-02-02T23:38:13.565Z,16.90
2023-02-02T23:40:42.068Z,16.17
2023-02-02T23:43:10.598Z,16.05
2023-02-02T23:45:40.080Z,15.27
2023-02-02T23:48:10.930Z,15.43
2023-02-02T23:50:40.009Z,16.42
2023-02-02T23:53:11.658Z,16.58
2023-02-02T23:55:41.898Z,15.10
2023-02-02T23:58:11.447Z,15.32
